NCAR-RAP Real-Time Weather Data

Output produced by METARs form (06 May 2021  16:47 UTC)
found at http://weather.rap.ucar.edu/surface/
 
KLAX 061600Z 23005KT 5SM HZ OVC015 16/12 A3005 RMK AO2 T01610117 $
KLAX 061553Z 20005KT 6SM HZ OVC014 16/12 A3005 RMK AO2 SLP174 T01610122 $
KLAX 061453Z 28003KT 6SM HZ OVC012 15/12 A3005 RMK AO2 SLP173 T01500117 53019 $
KLAX 061353Z 15006KT 8SM OVC012 14/12 A3003 RMK AO2 SLP167 T01440122 $
KLAX 061253Z 28004KT 5SM HZ FEW007 OVC010 14/12 A3000 RMK AO2 SLP157 T01440117 $
KLAX 061153Z 25004KT 8SM FEW007 OVC010 14/12 A2999 RMK AO2 SLP153 T01390117 10150 20139 55005 $
KLAX 061053Z 00000KT 8SM FEW007 OVC010 14/12 A2998 RMK AO2 SLP151 T01440117 $
KLAX 060953Z 00000KT 9SM FEW007 OVC010 14/12 A2999 RMK AO2 SLP153 T01440117 $
KLAX 060853Z 11003KT 10SM FEW007 OVC010 15/12 A3000 RMK AO2 SLP158 T01500122 58005 $
KLAX 060753Z 00000KT 10SM FEW007 OVC010 14/12 A3002 RMK AO2 SLP164 T01440122 402000139 $
KLAX 060749Z 00000KT 10SM FEW007 OVC010 14/12 A3002 RMK AO2 $
KLAX 060653Z 22004KT 10SM FEW007 BKN009 14/12 A3003 RMK AO2 SLP166 T01440122 $
KLAX 060553Z 24004KT 10SM FEW006 BKN009 14/12 A3002 RMK AO2 SLP164 T01390122 10183 20139 51018 $
KLAX 060509Z 26007KT 10SM FEW006 BKN008 14/12 A3001 RMK AO2 T01390122 $
KLAX 060453Z 24006KT 10SM SCT009 14/12 A3001 RMK AO2 SLP160 T01390122 $
KLAX 060442Z 26007KT 10SM SCT009 14/12 A3000 RMK AO2 T01390122 $
KLAX 060409Z 26006KT 10SM OVC009 14/12 A2999 RMK AO2 T01440122 $
KLAX 060353Z 27008KT 10SM SCT009 14/12 A2998 RMK AO2 SLP151 T01440122 $